createdAt,value
2018-11-07T00:00:45.136Z,63.70
2018-11-07T00:03:18.867Z,63.70
2018-11-07T00:05:52.713Z,63.90
2018-11-07T00:08:27.046Z,63.80
2018-11-07T00:11:01.405Z,63.80
2018-11-07T00:13:35.529Z,63.80
2018-11-07T00:16:09.770Z,64.70
2018-11-07T00:18:44.831Z,63.90
2018-11-07T00:21:18.877Z,64.00
2018-11-07T00:23:55.026Z,64.30
2018-11-07T00:26:29.788Z,65.20
2018-11-07T00:29:06.066Z,64.30
2018-11-07T00:31:39.662Z,64.30
2018-11-07T00:34:13.770Z,64.40
2018-11-07T00:36:56.186Z,65.20
2018-11-07T00:39:31.938Z,64.30
2018-11-07T00:42:06.206Z,64.20
2018-11-07T00:44:42.136Z,64.20
2018-11-07T00:47:16.514Z,64.10
2018-11-07T00:49:56.013Z,64.10
2018-11-07T00:52:33.761Z,64.00
2018-11-07T00:55:09.343Z,64.00
2018-11-07T00:57:44.565Z,64.10
2018-11-07T01:03:21.600Z,64.00
2018-11-07T01:05:55.749Z,63.80
2018-11-07T01:08:29.957Z,63.70
2018-11-07T01:11:08.842Z,63.70
2018-11-07T01:13:44.228Z,63.60
2018-11-07T01:16:18.477Z,63.50
2018-11-07T01:18:56.194Z,63.60
2018-11-07T01:21:31.789Z,63.40
2018-11-07T01:24:06.425Z,63.30
2018-11-07T01:26:40.201Z,63.00
2018-11-07T01:29:15.441Z,62.80
2018-11-07T01:31:49.569Z,62.70
2018-11-07T01:34:24.094Z,62.70
2018-11-07T01:37:06.748Z,62.70
2018-11-07T01:39:43.288Z,62.60
2018-11-07T01:42:17.086Z,62.30
2018-11-07T01:44:52.655Z,62.30
2018-11-07T01:47:26.329Z,62.40
2018-11-07T01:50:01.991Z,62.00
2018-11-07T01:52:36.247Z,61.60
2018-11-07T01:55:12.116Z,61.40
2018-11-07T01:57:48.453Z,61.30
2018-11-07T02:00:23.009Z,61.50
2018-11-07T02:02:58.350Z,61.70
2018-11-07T02:05:31.970Z,61.60
2018-11-07T02:08:06.146Z,61.60
2018-11-07T02:10:40.184Z,61.40
2018-11-07T02:13:15.168Z,61.20
2018-11-07T02:15:50.075Z,61.20
2018-11-07T02:18:24.736Z,61.30
2018-11-07T02:20:58.754Z,61.30
2018-11-07T02:23:33.687Z,61.30
2018-11-07T02:26:08.875Z,61.40
2018-11-07T02:28:43.585Z,61.00
2018-11-07T02:31:17.885Z,61.00
2018-11-07T02:33:52.146Z,61.70
2018-11-07T02:36:26.458Z,61.00
2018-11-07T02:39:01.446Z,61.00
2018-11-07T02:41:36.704Z,60.50
2018-11-07T02:44:11.624Z,60.60
2018-11-07T02:46:50.505Z,60.20
2018-11-07T02:49:26.039Z,60.20
2018-11-07T02:52:00.316Z,60.00
2018-11-07T02:54:39.607Z,60.10
2018-11-07T02:57:15.859Z,59.80
2018-11-07T02:59:49.761Z,60.10
2018-11-07T03:02:23.886Z,58.90
2018-11-07T03:04:59.843Z,58.70
2018-11-07T03:07:34.790Z,58.80
2018-11-07T03:10:14.245Z,58.80
2018-11-07T03:12:48.402Z,58.70
2018-11-07T03:15:25.715Z,58.10
2018-11-07T03:18:00.390Z,57.90
2018-11-07T03:20:34.649Z,57.40
2018-11-07T03:23:08.800Z,56.80
2018-11-07T03:25:43.041Z,57.10
2018-11-07T03:28:19.794Z,55.80
2018-11-07T03:30:54.238Z,55.90
2018-11-07T03:33:28.072Z,55.70
2018-11-07T03:36:04.419Z,55.90
2018-11-07T03:38:38.308Z,55.40
2018-11-07T03:41:12.806Z,55.10
2018-11-07T03:43:49.200Z,54.60
2018-11-07T03:46:23.967Z,54.50
2018-11-07T03:49:00.015Z,55.20
2018-11-07T03:51:34.121Z,54.30
2018-11-07T03:54:08.315Z,55.00
2018-11-07T03:56:42.506Z,55.20
2018-11-07T03:59:16.771Z,55.40
2018-11-07T04:01:51.675Z,55.70
2018-11-07T04:04:32.645Z,55.10
2018-11-07T04:07:07.247Z,55.20
2018-11-07T04:09:43.362Z,54.80
2018-11-07T04:12:20.720Z,54.50
2018-11-07T04:14:56.275Z,54.70
2018-11-07T04:17:35.320Z,54.70
2018-11-07T04:20:11.612Z,54.30
2018-11-07T04:22:45.428Z,54.40
2018-11-07T04:25:22.951Z,54.30
2018-11-07T04:27:57.506Z,54.30
2018-11-07T04:30:31.621Z,53.70
2018-11-07T04:33:05.659Z,53.60
2018-11-07T04:35:41.448Z,53.50
2018-11-07T04:38:20.025Z,53.50
2018-11-07T04:40:54.678Z,53.50
2018-11-07T04:43:28.616Z,53.50
2018-11-07T04:46:03.823Z,53.20
2018-11-07T04:48:38.183Z,53.10
2018-11-07T04:51:12.738Z,52.90
2018-11-07T04:53:47.878Z,53.10
2018-11-07T04:56:23.057Z,52.50
2018-11-07T04:58:57.115Z,52.70
2018-11-07T05:01:33.000Z,52.90
2018-11-07T05:04:07.262Z,52.70
2018-11-07T05:06:42.494Z,52.40
2018-11-07T05:09:17.663Z,52.00
2018-11-07T05:11:57.298Z,52.10
2018-11-07T05:14:32.246Z,51.80
2018-11-07T05:17:06.315Z,51.70
2018-11-07T05:19:42.259Z,51.20
2018-11-07T05:22:21.341Z,51.20
2018-11-07T05:24:57.506Z,50.90
2018-11-07T05:27:31.914Z,50.20
2018-11-07T05:30:06.797Z,50.60
2018-11-07T05:32:43.060Z,50.50
2018-11-07T05:35:26.836Z,50.30
2018-11-07T05:38:01.475Z,50.20
2018-11-07T05:40:35.282Z,50.30
2018-11-07T05:43:13.721Z,50.40
2018-11-07T05:45:49.379Z,50.50
2018-11-07T05:48:23.482Z,50.50
2018-11-07T05:50:59.164Z,50.40
2018-11-07T05:53:36.802Z,51.40
2018-11-07T05:56:11.837Z,49.80
2018-11-07T05:58:47.971Z,50.20
2018-11-07T06:01:23.971Z,51.30
2018-11-07T06:03:59.535Z,52.00
2018-11-07T06:06:33.107Z,51.80
2018-11-07T06:09:12.209Z,52.00
2018-11-07T06:11:47.183Z,51.90
2018-11-07T06:14:22.202Z,51.90
2018-11-07T06:16:58.078Z,52.30
2018-11-07T06:19:32.095Z,52.60
2018-11-07T06:22:08.902Z,52.40
2018-11-07T06:24:43.408Z,52.30
2018-11-07T06:27:19.632Z,52.60
2018-11-07T06:29:55.714Z,53.00
2018-11-07T06:32:30.252Z,52.80
2018-11-07T06:35:05.424Z,52.60
2018-11-07T06:37:39.317Z,53.30
2018-11-07T06:40:14.577Z,53.50
2018-11-07T06:42:48.933Z,53.50
2018-11-07T06:45:24.141Z,53.00
2018-11-07T06:48:00.813Z,53.70
2018-11-07T06:50:34.732Z,53.40
2018-11-07T06:53:09.006Z,53.40
2018-11-07T06:55:45.056Z,53.20
2018-11-07T06:58:20.039Z,53.60
2018-11-07T07:00:54.002Z,53.30
2018-11-07T07:03:28.907Z,53.50
2018-11-07T07:06:02.841Z,53.50
2018-11-07T07:08:37.977Z,53.40
2018-11-07T07:11:13.359Z,53.20
2018-11-07T07:13:48.301Z,53.40
2018-11-07T07:16:24.730Z,53.50
2018-11-07T07:18:58.793Z,53.30
2018-11-07T07:21:33.861Z,53.80
2018-11-07T07:24:08.786Z,53.90
2018-11-07T07:26:42.599Z,54.30
2018-11-07T07:29:17.326Z,54.40
2018-11-07T07:31:52.026Z,55.00
2018-11-07T07:34:27.175Z,54.70
2018-11-07T07:37:02.835Z,55.30
2018-11-07T07:39:37.468Z,55.60
2018-11-07T07:42:14.887Z,55.80
2018-11-07T07:44:49.320Z,55.60
2018-11-07T07:47:23.064Z,55.80
2018-11-07T07:49:58.017Z,55.60
2018-11-07T07:52:31.652Z,55.70
2018-11-07T07:55:05.601Z,55.70
2018-11-07T07:57:41.344Z,55.50
2018-11-07T08:00:19.025Z,55.40
2018-11-07T08:02:54.073Z,55.70
2018-11-07T08:05:30.661Z,55.90
2018-11-07T08:08:04.581Z,56.10
2018-11-07T08:10:39.801Z,56.40
2018-11-07T08:13:14.584Z,57.00
2018-11-07T08:15:50.308Z,57.10
2018-11-07T08:18:24.290Z,57.00
2018-11-07T08:20:58.284Z,56.90
2018-11-07T08:23:33.272Z,56.80
2018-11-07T08:26:07.436Z,54.80
2018-11-07T08:28:41.288Z,54.90
2018-11-07T08:31:16.350Z,54.10
2018-11-07T08:33:51.747Z,52.50
2018-11-07T08:36:26.826Z,52.80
2018-11-07T08:39:00.714Z,52.90
2018-11-07T08:41:34.746Z,52.70
2018-11-07T08:44:08.495Z,52.20
2018-11-07T08:46:43.700Z,52.20
2018-11-07T08:49:18.027Z,52.00
2018-11-07T08:51:51.924Z,51.80
2018-11-07T08:54:25.913Z,51.70
2018-11-07T08:56:59.899Z,51.80
2018-11-07T08:59:34.785Z,51.80
2018-11-07T09:02:10.834Z,51.80
2018-11-07T09:04:44.980Z,51.70
2018-11-07T09:07:19.997Z,51.60
2018-11-07T09:09:54.152Z,51.60
2018-11-07T09:12:28.467Z,51.10
2018-11-07T09:15:03.921Z,51.10
2018-11-07T09:17:37.929Z,51.20
2018-11-07T09:20:13.697Z,51.40
2018-11-07T09:22:47.834Z,51.40
2018-11-07T09:25:24.912Z,51.40
2018-11-07T09:27:58.931Z,51.20
2018-11-07T09:30:34.215Z,51.00
2018-11-07T09:33:09.007Z,51.20
2018-11-07T09:35:44.035Z,51.00
2018-11-07T09:38:18.021Z,51.30
2018-11-07T09:40:54.730Z,51.50
2018-11-07T09:43:30.289Z,51.60
2018-11-07T09:46:05.213Z,51.60
2018-11-07T09:49:10.097Z,51.60
2018-11-07T09:51:46.096Z,51.70
2018-11-07T09:54:20.787Z,51.90
2018-11-07T09:56:56.609Z,52.00
2018-11-07T09:59:32.893Z,51.90
2018-11-07T10:02:10.564Z,52.10
2018-11-07T10:04:44.417Z,52.20
2018-11-07T10:07:19.748Z,52.10
2018-11-07T10:09:53.516Z,52.30
2018-11-07T10:12:29.708Z,52.40
2018-11-07T10:15:03.588Z,52.30
2018-11-07T10:17:37.821Z,52.20
2018-11-07T10:20:16.052Z,52.30
2018-11-07T10:22:51.361Z,52.40
2018-11-07T10:25:25.195Z,52.50
2018-11-07T10:27:59.461Z,52.70
2018-11-07T10:30:34.207Z,52.60
2018-11-07T10:33:08.301Z,52.80
2018-11-07T10:35:42.451Z,53.50
2018-11-07T10:38:16.418Z,52.80
2018-11-07T10:40:52.641Z,52.80
2018-11-07T10:43:35.454Z,52.90
2018-11-07T10:46:10.960Z,53.00
2018-11-07T10:48:44.964Z,53.10
2018-11-07T10:51:19.011Z,53.20
2018-11-07T10:53:53.256Z,53.20
2018-11-07T10:56:29.095Z,53.30
2018-11-07T10:59:02.792Z,53.30
2018-11-07T11:01:40.706Z,53.40
2018-11-07T11:04:17.415Z,53.40
2018-11-07T11:06:56.748Z,53.50
2018-11-07T11:09:31.603Z,53.60
2018-11-07T11:12:06.548Z,53.50
2018-11-07T11:14:47.161Z,53.70
2018-11-07T11:17:22.090Z,53.80
2018-11-07T11:19:56.274Z,54.30
2018-11-07T11:22:30.051Z,53.90
2018-11-07T11:25:03.818Z,54.00
2018-11-07T11:27:37.762Z,54.00
2018-11-07T11:30:14.266Z,54.10
2018-11-07T11:32:48.693Z,54.20
2018-11-07T11:35:22.897Z,54.20
2018-11-07T11:37:57.754Z,54.20
2018-11-07T11:40:32.189Z,54.30
2018-11-07T11:43:08.514Z,54.40
2018-11-07T11:45:43.763Z,54.60
2018-11-07T11:48:17.967Z,54.50
2018-11-07T11:50:52.022Z,54.50
2018-11-07T11:53:26.309Z,54.70
2018-11-07T11:56:02.910Z,54.80
2018-11-07T11:58:37.414Z,54.90
2018-11-07T12:01:11.818Z,54.90
2018-11-07T12:03:47.070Z,55.10
2018-11-07T12:09:12.893Z,56.00
2018-11-07T12:11:47.507Z,55.40
2018-11-07T12:14:21.604Z,55.30
2018-11-07T12:16:55.362Z,55.30
2018-11-07T12:19:29.789Z,55.30
2018-11-07T12:22:04.485Z,55.30
2018-11-07T12:24:38.238Z,55.20
2018-11-07T12:27:12.461Z,55.20
2018-11-07T12:29:46.285Z,55.10
2018-11-07T12:32:19.994Z,55.10
2018-11-07T12:34:55.760Z,55.10
2018-11-07T12:37:29.724Z,55.10
2018-11-07T12:40:07.134Z,55.10
2018-11-07T12:42:42.246Z,55.20
2018-11-07T12:45:17.507Z,55.20
2018-11-07T12:47:51.317Z,55.20
2018-11-07T12:50:27.198Z,55.30
2018-11-07T12:53:01.350Z,55.50
2018-11-07T12:55:35.418Z,55.70
2018-11-07T12:58:10.145Z,55.70
2018-11-07T13:00:46.225Z,56.10
2018-11-07T13:03:20.458Z,56.10
2018-11-07T13:05:54.504Z,56.50
2018-11-07T13:08:29.706Z,56.60
2018-11-07T13:11:05.859Z,56.80
2018-11-07T13:13:40.404Z,56.90
2018-11-07T13:16:15.291Z,57.00
2018-11-07T13:18:49.465Z,57.00
2018-11-07T13:21:23.244Z,57.30
2018-11-07T13:24:00.617Z,57.20
2018-11-07T13:26:35.975Z,57.40
2018-11-07T13:29:10.930Z,57.40
2018-11-07T13:31:45.961Z,57.30
2018-11-07T13:34:21.662Z,57.40
2018-11-07T13:36:55.704Z,57.50
2018-11-07T13:39:29.457Z,57.50
2018-11-07T13:42:03.050Z,57.70
2018-11-07T13:44:38.035Z,57.70
2018-11-07T13:47:11.856Z,57.70
2018-11-07T13:49:45.834Z,57.80
2018-11-07T13:52:21.161Z,57.80
2018-11-07T13:59:58.504Z,57.80
2018-11-07T14:02:33.661Z,58.00
2018-11-07T14:05:10.531Z,58.10
2018-11-07T14:07:44.777Z,58.20
2018-11-07T14:10:21.830Z,58.20
2018-11-07T14:12:56.391Z,58.20
2018-11-07T14:15:29.772Z,58.10
2018-11-07T14:18:03.841Z,58.10
2018-11-07T14:20:38.421Z,58.00
2018-11-07T14:23:11.964Z,58.00
2018-11-07T14:25:46.145Z,57.90
2018-11-07T14:28:20.335Z,57.90
2018-11-07T14:30:54.611Z,57.80
2018-11-07T14:33:28.368Z,57.80
2018-11-07T14:36:01.897Z,57.80
2018-11-07T14:38:35.868Z,57.80
2018-11-07T14:41:09.958Z,57.70
2018-11-07T14:43:43.741Z,57.70
2018-11-07T14:46:17.637Z,57.70
2018-11-07T14:48:51.862Z,57.70
2018-11-07T14:51:25.648Z,58.30
2018-11-07T14:53:59.592Z,57.70
2018-11-07T14:56:33.644Z,57.70
2018-11-07T14:59:06.999Z,57.70
2018-11-07T15:01:41.301Z,57.70
2018-11-07T15:04:16.446Z,57.80
2018-11-07T15:06:50.731Z,58.50
2018-11-07T15:09:26.077Z,57.90
2018-11-07T15:12:00.890Z,57.80
2018-11-07T15:14:34.653Z,57.90
2018-11-07T15:17:09.286Z,57.90
2018-11-07T15:19:43.202Z,57.90
2018-11-07T15:22:16.724Z,57.90
2018-11-07T15:24:51.345Z,57.90
2018-11-07T15:27:25.017Z,57.90
2018-11-07T15:29:58.751Z,57.90
2018-11-07T15:32:32.848Z,57.80
2018-11-07T15:35:07.405Z,57.90
2018-11-07T15:37:42.043Z,58.10
2018-11-07T15:40:18.590Z,58.10
2018-11-07T15:42:51.969Z,58.10
2018-11-07T15:45:27.219Z,58.20
2018-11-07T15:48:00.972Z,58.30
2018-11-07T15:50:40.484Z,58.20
2018-11-07T15:53:15.564Z,58.30
2018-11-07T15:55:49.452Z,58.30
2018-11-07T15:58:23.543Z,58.30
2018-11-07T16:00:58.472Z,58.40
2018-11-07T16:03:36.508Z,58.30
2018-11-07T16:06:10.559Z,58.30
2018-11-07T16:08:45.209Z,58.30
2018-11-07T16:11:19.012Z,58.40
2018-11-07T16:13:53.677Z,58.50
2018-11-07T16:16:28.523Z,58.40
2018-11-07T16:19:02.869Z,58.40
2018-11-07T16:21:36.742Z,58.40
2018-11-07T16:24:11.208Z,58.40
2018-11-07T16:26:45.121Z,58.40
2018-11-07T16:29:18.912Z,58.40
2018-11-07T16:31:52.940Z,58.40
2018-11-07T16:34:26.896Z,58.40
2018-11-07T16:37:01.023Z,58.40
2018-11-07T16:39:34.936Z,58.70
2018-11-07T16:42:09.856Z,58.90
2018-11-07T16:44:43.815Z,59.40
2018-11-07T16:47:19.600Z,59.60
2018-11-07T16:49:53.620Z,60.00
2018-11-07T16:52:27.572Z,60.00
2018-11-07T16:55:01.884Z,60.00
2018-11-07T16:57:36.370Z,60.10
2018-11-07T17:00:14.763Z,60.10
2018-11-07T17:02:49.240Z,60.10
2018-11-07T17:05:23.082Z,60.20
2018-11-07T17:07:57.859Z,60.50
2018-11-07T17:10:31.984Z,60.80
2018-11-07T17:13:05.886Z,61.90
2018-11-07T17:15:40.700Z,61.00
2018-11-07T17:18:14.404Z,61.20
2018-11-07T17:20:48.431Z,61.00
2018-11-07T17:23:22.255Z,61.00
2018-11-07T17:25:56.044Z,61.00
2018-11-07T17:28:29.802Z,60.90
2018-11-07T17:31:03.500Z,60.90
2018-11-07T17:33:37.583Z,60.80
2018-11-07T17:36:11.348Z,60.50
2018-11-07T17:38:45.747Z,60.30
2018-11-07T17:41:19.815Z,60.00
2018-11-07T17:43:53.738Z,60.00
2018-11-07T17:46:27.967Z,60.10
2018-11-07T17:49:02.056Z,60.00
2018-11-07T17:51:36.469Z,59.90
2018-11-07T17:54:10.510Z,60.10
2018-11-07T17:56:44.624Z,60.10
2018-11-07T17:59:19.336Z,59.80
2018-11-07T18:01:53.614Z,60.00
2018-11-07T18:04:27.736Z,60.10
2018-11-07T18:12:00.358Z,60.40
2018-11-07T18:14:34.563Z,60.30
2018-11-07T18:17:10.584Z,60.30
2018-11-07T18:19:46.805Z,60.30
2018-11-07T18:22:21.471Z,60.30
2018-11-07T18:24:55.861Z,60.40
2018-11-07T18:27:29.837Z,60.30
2018-11-07T18:30:05.733Z,60.30
2018-11-07T18:32:40.513Z,60.20
2018-11-07T18:35:15.709Z,60.30
2018-11-07T18:37:50.073Z,60.40
2018-11-07T18:40:24.033Z,60.40
2018-11-07T18:42:58.604Z,60.40
2018-11-07T18:45:32.888Z,60.30
2018-11-07T18:48:06.690Z,60.50
2018-11-07T18:50:41.021Z,60.60
2018-11-07T18:53:15.163Z,60.50
2018-11-07T18:55:50.407Z,60.50
2018-11-07T18:58:24.242Z,60.50
2018-11-07T19:00:58.742Z,60.50
2018-11-07T19:03:32.652Z,60.60
2018-11-07T19:06:06.899Z,60.60
2018-11-07T19:08:42.342Z,60.70
2018-11-07T19:11:17.432Z,60.70
2018-11-07T19:13:52.205Z,60.80
2018-11-07T19:16:25.758Z,61.40
2018-11-07T19:19:01.026Z,61.50
2018-11-07T19:21:36.015Z,60.80
2018-11-07T19:24:09.958Z,60.80
2018-11-07T19:26:44.169Z,60.80
2018-11-07T19:29:19.541Z,61.60
2018-11-07T19:31:53.675Z,60.60
2018-11-07T19:34:27.740Z,60.70
2018-11-07T19:42:02.938Z,60.70
2018-11-07T19:44:36.906Z,60.80
2018-11-07T19:47:10.857Z,60.20
2018-11-07T19:49:45.933Z,61.10
2018-11-07T19:52:19.937Z,61.20
2018-11-07T19:54:56.934Z,61.10
2018-11-07T19:57:30.918Z,61.10
2018-11-07T20:00:05.490Z,61.00
2018-11-07T20:02:39.718Z,61.10
2018-11-07T20:05:14.288Z,61.10
2018-11-07T20:07:49.173Z,61.80
2018-11-07T20:10:25.619Z,61.10
2018-11-07T20:12:59.881Z,61.00
2018-11-07T20:15:33.886Z,61.00
2018-11-07T20:18:09.318Z,61.10
2018-11-07T20:20:44.951Z,61.20
2018-11-07T20:23:19.337Z,61.00
2018-11-07T20:25:54.639Z,61.40
2018-11-07T20:28:30.659Z,61.00
2018-11-07T20:31:06.075Z,61.00
2018-11-07T20:33:40.159Z,61.10
2018-11-07T20:36:14.389Z,61.00
2018-11-07T20:38:48.878Z,61.10
2018-11-07T20:41:22.892Z,61.10
2018-11-07T20:43:57.340Z,61.10
2018-11-07T20:46:31.683Z,61.10
2018-11-07T20:49:05.825Z,61.10
2018-11-07T20:51:39.957Z,61.10
2018-11-07T20:54:15.219Z,61.10
2018-11-07T20:56:49.636Z,61.00
2018-11-07T20:59:23.739Z,60.90
2018-11-07T21:02:01.028Z,60.90
2018-11-07T21:04:35.418Z,60.80
2018-11-07T21:07:09.387Z,60.60
2018-11-07T21:09:43.257Z,60.50
2018-11-07T21:12:18.226Z,60.60
2018-11-07T21:14:52.470Z,60.50
2018-11-07T21:17:26.470Z,60.50
2018-11-07T21:20:00.727Z,60.60
2018-11-07T21:22:35.364Z,60.70
2018-11-07T21:25:09.658Z,60.80
2018-11-07T21:27:43.781Z,60.90
2018-11-07T21:30:18.433Z,60.80
2018-11-07T21:32:52.027Z,60.90
2018-11-07T21:35:26.577Z,60.90
2018-11-07T21:38:00.723Z,60.90
2018-11-07T21:40:34.737Z,60.80
2018-11-07T21:43:08.825Z,60.80
2018-11-07T21:45:43.412Z,60.60
2018-11-07T21:48:17.792Z,60.40
2018-11-07T21:50:51.892Z,60.30
2018-11-07T21:53:27.078Z,60.30
2018-11-07T21:56:00.839Z,60.40
2018-11-07T21:58:36.884Z,61.20
2018-11-07T22:01:13.625Z,60.60
2018-11-07T22:03:47.799Z,60.70
2018-11-07T22:09:00.801Z,60.90
2018-11-07T22:11:35.647Z,61.10
2018-11-07T22:14:10.060Z,61.10
2018-11-07T22:16:44.196Z,61.10
2018-11-07T22:19:17.719Z,61.10
2018-11-07T22:21:52.229Z,61.10
2018-11-07T22:29:27.537Z,61.00
2018-11-07T22:32:02.882Z,61.00
2018-11-07T22:34:36.951Z,61.20
2018-11-07T22:37:11.038Z,61.20
2018-11-07T22:39:45.077Z,61.20
2018-11-07T22:42:19.224Z,61.10
2018-11-07T22:44:53.544Z,61.20
2018-11-07T22:47:27.772Z,61.10
2018-11-07T22:50:01.812Z,61.10
2018-11-07T22:52:35.877Z,61.10
2018-11-07T22:55:10.461Z,61.10
2018-11-07T22:57:45.078Z,61.10
2018-11-07T23:00:23.979Z,61.10
2018-11-07T23:02:59.098Z,61.00
2018-11-07T23:05:32.955Z,61.10
2018-11-07T23:08:07.772Z,61.20
2018-11-07T23:10:41.824Z,61.20
2018-11-07T23:13:15.989Z,61.20
2018-11-07T23:15:50.673Z,61.30
2018-11-07T23:18:25.934Z,61.30
2018-11-07T23:20:59.915Z,61.20
2018-11-07T23:23:33.817Z,61.30
2018-11-07T23:26:09.175Z,61.40
2018-11-07T23:28:43.068Z,61.40
2018-11-07T23:31:17.304Z,61.60
2018-11-07T23:33:51.413Z,61.60
2018-11-07T23:36:25.866Z,61.70
2018-11-07T23:38:59.929Z,61.90
2018-11-07T23:41:35.972Z,62.00
2018-11-07T23:44:11.391Z,62.00
2018-11-07T23:46:45.557Z,62.10
2018-11-07T23:49:20.323Z,62.20
2018-11-07T23:51:55.328Z,62.30
2018-11-07T23:54:29.532Z,62.30
2018-11-07T23:57:03.554Z,61.50
2018-11-07T23:59:38.025Z,62.40
